createdAt,value
2018-06-21T00:01:33.905Z,101002.66
2018-06-21T00:04:02.280Z,101000.00
2018-06-21T00:06:30.062Z,100992.09
2018-06-21T00:08:57.522Z,100989.83
2018-06-21T00:11:24.932Z,100990.76
2018-06-21T00:13:52.447Z,100984.11
2018-06-21T00:16:20.329Z,100980.66
2018-06-21T00:18:48.447Z,100979.55
2018-06-21T00:21:17.437Z,100971.64
2018-06-21T00:23:45.756Z,100970.84
2018-06-21T00:26:13.186Z,100959.45
2018-06-21T00:28:40.573Z,100969.02
2018-06-21T00:31:07.839Z,100960.80
2018-06-21T00:33:34.966Z,100962.73
2018-06-21T00:36:02.425Z,100957.08
2018-06-21T00:38:30.008Z,100951.39
2018-06-21T00:40:57.540Z,100952.45
2018-06-21T00:43:25.056Z,100950.80
2018-06-21T00:45:52.763Z,100951.26
2018-06-21T00:48:20.452Z,100945.02
2018-06-21T00:50:48.378Z,100949.40
2018-06-21T00:53:16.095Z,100938.83
2018-06-21T00:55:54.954Z,100945.94
2018-06-21T00:58:22.477Z,100937.20
2018-06-21T01:00:50.079Z,100934.14
2018-06-21T01:03:17.815Z,100933.75
2018-06-21T01:05:45.401Z,100935.31
2018-06-21T01:08:12.583Z,100933.28
2018-06-21T01:10:40.328Z,100936.94
2018-06-21T01:13:07.473Z,100924.87
2018-06-21T01:15:34.742Z,100926.86
2018-06-21T01:18:02.836Z,100920.77
2018-06-21T01:20:30.052Z,100916.45
2018-06-21T01:22:57.257Z,100908.84
2018-06-21T01:25:24.765Z,100913.22
2018-06-21T01:27:52.569Z,100900.80
2018-06-21T01:30:20.265Z,100900.88
2018-06-21T01:32:48.440Z,100890.80
2018-06-21T01:35:16.235Z,100896.58
2018-06-21T01:37:43.451Z,100892.36
2018-06-21T01:40:11.704Z,100892.42
2018-06-21T01:42:38.923Z,100888.10
2018-06-21T01:45:06.057Z,100885.78
2018-06-21T01:47:33.560Z,100884.85
2018-06-21T01:50:00.739Z,100877.35
2018-06-21T01:52:27.983Z,100879.27
2018-06-21T01:54:55.524Z,100875.51
2018-06-21T01:57:23.187Z,100873.45
2018-06-21T01:59:50.740Z,100866.47
2018-06-21T02:02:18.795Z,100862.48
2018-06-21T02:05:05.022Z,100861.95
2018-06-21T02:07:32.296Z,100857.86
2018-06-21T02:09:59.450Z,100855.86
2018-06-21T02:12:26.695Z,100858.52
2018-06-21T02:14:54.325Z,100861.45
2018-06-21T02:17:21.713Z,100857.47
2018-06-21T02:19:49.380Z,100857.92
2018-06-21T02:22:17.172Z,100854.34
2018-06-21T02:24:44.440Z,100843.39
2018-06-21T02:27:11.930Z,100847.90
2018-06-21T02:29:39.291Z,100847.53
2018-06-21T02:32:06.489Z,100842.28
2018-06-21T02:34:33.703Z,100839.76
2018-06-21T02:37:00.915Z,100843.87
2018-06-21T02:39:28.123Z,100839.58
2018-06-21T02:41:55.427Z,100833.47
2018-06-21T02:44:23.015Z,100832.20
2018-06-21T02:46:50.667Z,100830.54
2018-06-21T02:49:18.600Z,100833.35
2018-06-21T02:51:46.537Z,100827.12
2018-06-21T02:54:13.732Z,100830.54
2018-06-21T02:56:40.913Z,100822.58
2018-06-21T02:59:08.140Z,100826.95
2018-06-21T03:01:35.256Z,100824.46
2018-06-21T03:04:02.542Z,100817.03
2018-06-21T03:06:29.693Z,100818.48
2018-06-21T03:08:56.956Z,100817.62
2018-06-21T03:11:24.500Z,100814.09
2018-06-21T03:13:51.895Z,100810.98
2018-06-21T03:16:19.570Z,100807.73
2018-06-21T03:18:47.133Z,100802.55
2018-06-21T03:21:14.414Z,100800.37
2018-06-21T03:23:41.575Z,100795.52
2018-06-21T03:26:10.902Z,100795.33
2018-06-21T03:28:38.538Z,100789.63
2018-06-21T03:31:06.125Z,100790.95
2018-06-21T03:33:33.548Z,100790.95
2018-06-21T03:36:01.362Z,100785.12
2018-06-21T03:38:28.545Z,100779.71
2018-06-21T03:40:56.018Z,100775.95
2018-06-21T03:43:23.711Z,100777.69
2018-06-21T03:45:51.500Z,100781.38
2018-06-21T03:48:19.212Z,100779.05
2018-06-21T03:50:47.790Z,100775.98
2018-06-21T03:53:15.648Z,100768.87
2018-06-21T03:55:42.931Z,100762.58
2018-06-21T03:58:10.297Z,100764.27
2018-06-21T04:00:37.480Z,100760.55
2018-06-21T04:03:11.616Z,100760.02
2018-06-21T04:05:38.837Z,100757.60
2018-06-21T04:08:05.975Z,100759.33
2018-06-21T04:10:34.085Z,100755.77
2018-06-21T04:13:03.178Z,100760.89
2018-06-21T04:15:30.478Z,100756.80
2018-06-21T04:17:58.264Z,100752.83
2018-06-21T04:20:25.711Z,100753.42
2018-06-21T04:22:53.381Z,100747.08
2018-06-21T04:25:21.010Z,100749.00
2018-06-21T04:27:49.097Z,100744.16
2018-06-21T04:30:17.159Z,100744.31
2018-06-21T04:32:44.553Z,100741.11
2018-06-21T04:35:11.690Z,100733.66
2018-06-21T04:37:39.676Z,100731.64
2018-06-21T04:40:07.773Z,100735.01
2018-06-21T04:42:35.128Z,100732.52
2018-06-21T04:45:06.730Z,100725.45
2018-06-21T04:47:34.007Z,100729.88
2018-06-21T04:50:01.308Z,100721.78
2018-06-21T04:52:28.491Z,100719.40
2018-06-21T04:54:55.961Z,100712.39
2018-06-21T04:57:26.629Z,100712.31
2018-06-21T04:59:53.962Z,100709.36
2018-06-21T05:02:21.676Z,100702.77
2018-06-21T05:04:49.428Z,100701.85
2018-06-21T05:07:17.473Z,100714.76
2018-06-21T05:09:47.097Z,100701.50
2018-06-21T05:12:20.762Z,100698.78
2018-06-21T05:14:48.786Z,100691.24
2018-06-21T05:17:16.244Z,100689.00
2018-06-21T05:19:43.781Z,100684.61
2018-06-21T05:22:11.217Z,100689.20
2018-06-21T05:24:38.390Z,100688.21
2018-06-21T05:27:05.889Z,100678.66
2018-06-21T05:29:33.412Z,100682.48
2018-06-21T05:32:00.570Z,100681.48
2018-06-21T05:34:27.695Z,100680.36
2018-06-21T05:36:55.175Z,100681.53
2018-06-21T05:39:22.394Z,100685.53
2018-06-21T05:41:50.248Z,100686.12
2018-06-21T05:44:17.977Z,100683.38
2018-06-21T05:46:45.355Z,100681.93
2018-06-21T05:49:12.876Z,100687.05
2018-06-21T05:51:40.522Z,100675.52
2018-06-21T05:54:08.154Z,100668.16
2018-06-21T05:56:39.898Z,100658.95
2018-06-21T05:59:07.091Z,100667.02
2018-06-21T06:01:35.932Z,100656.86
2018-06-21T06:04:03.395Z,100659.44
2018-06-21T06:06:30.625Z,100653.67
2018-06-21T06:08:57.836Z,100647.56
2018-06-21T06:11:25.133Z,100638.64
2018-06-21T06:13:52.268Z,100645.84
2018-06-21T06:16:19.642Z,100640.25
2018-06-21T06:18:47.212Z,100646.17
2018-06-21T06:21:14.762Z,100637.20
2018-06-21T06:23:42.174Z,100638.43
2018-06-21T06:26:09.682Z,100642.67
2018-06-21T06:28:40.452Z,100636.63
2018-06-21T06:31:07.636Z,100636.86
2018-06-21T06:33:34.871Z,100626.78
2018-06-21T06:36:02.027Z,100622.20
2018-06-21T06:38:29.441Z,100617.97
2018-06-21T06:40:57.392Z,100614.30
2018-06-21T06:43:24.971Z,100609.83
2018-06-21T06:45:52.632Z,100607.75
2018-06-21T06:48:20.176Z,100605.79
2018-06-21T06:50:47.302Z,100606.98
2018-06-21T06:53:14.485Z,100602.92
2018-06-21T06:55:41.774Z,100595.08
2018-06-21T06:58:09.365Z,100593.66
2018-06-21T07:00:36.489Z,100586.61
2018-06-21T07:03:03.771Z,100577.00
2018-06-21T07:05:30.993Z,100575.31
2018-06-21T07:07:58.614Z,100570.47
2018-06-21T07:10:26.684Z,100562.86
2018-06-21T07:12:54.350Z,100559.88
2018-06-21T07:15:22.260Z,100554.50
2018-06-21T07:17:49.953Z,100550.28
2018-06-21T07:20:17.264Z,100546.49
2018-06-21T07:22:44.823Z,100535.13
2018-06-21T07:25:12.097Z,100535.86
2018-06-21T07:27:39.580Z,100524.00
2018-06-21T07:30:06.788Z,100520.44
2018-06-21T07:32:34.063Z,100508.04
2018-06-21T07:35:01.189Z,100501.89
2018-06-21T07:37:28.639Z,100498.25
2018-06-21T07:39:55.865Z,100489.62
2018-06-21T07:42:23.127Z,100489.80
2018-06-21T07:44:50.414Z,100490.48
2018-06-21T07:47:18.824Z,100482.85
2018-06-21T07:49:46.290Z,100477.87
2018-06-21T07:52:14.349Z,100478.95
2018-06-21T07:54:42.317Z,100471.48
2018-06-21T07:57:10.274Z,100471.83
2018-06-21T07:59:37.559Z,100466.98
2018-06-21T08:02:04.812Z,100458.04
2018-06-21T08:04:31.955Z,100446.11
2018-06-21T08:06:59.150Z,100441.39
2018-06-21T08:09:26.435Z,100444.60
2018-06-21T08:11:53.592Z,100434.13
2018-06-21T08:14:20.957Z,100430.27
2018-06-21T08:16:48.493Z,100429.48
2018-06-21T08:19:18.430Z,100430.85
2018-06-21T08:21:46.219Z,100413.97
2018-06-21T08:24:14.003Z,100413.72
2018-06-21T08:26:41.584Z,100419.31
2018-06-21T08:29:08.779Z,100415.26
2018-06-21T08:31:36.267Z,100413.30
2018-06-21T08:34:03.658Z,100400.80
2018-06-21T08:36:31.468Z,100387.33
2018-06-21T08:38:59.441Z,100387.17
2018-06-21T08:41:31.257Z,100387.92
2018-06-21T08:43:58.915Z,100380.75
2018-06-21T08:46:26.761Z,100378.21
2018-06-21T08:48:54.974Z,100368.81
2018-06-21T08:51:22.658Z,100372.55
2018-06-21T08:53:51.147Z,100367.28
2018-06-21T08:56:18.400Z,100357.80
2018-06-21T08:58:45.569Z,100351.77
2018-06-21T09:01:12.723Z,100356.69
2018-06-21T09:03:39.885Z,100348.87
2018-06-21T09:06:07.120Z,100354.48
2018-06-21T09:08:34.570Z,100348.46
2018-06-21T09:11:02.257Z,100351.28
2018-06-21T09:13:35.264Z,100339.80
2018-06-21T09:16:03.388Z,100342.16
2018-06-21T09:18:30.910Z,100336.05
2018-06-21T09:20:58.702Z,100334.65
2018-06-21T09:23:26.388Z,100327.27
2018-06-21T09:25:55.705Z,100322.52
2018-06-21T09:28:23.937Z,100318.07
2018-06-21T09:30:52.271Z,100315.76
2018-06-21T09:33:20.272Z,100306.10
2018-06-21T09:35:48.720Z,100295.05
2018-06-21T09:38:21.954Z,100302.20
2018-06-21T09:40:55.625Z,100288.92
2018-06-21T09:43:28.942Z,100291.68
2018-06-21T09:46:02.110Z,100279.50
2018-06-21T09:48:30.868Z,100270.43
2018-06-21T09:50:59.024Z,100283.55
2018-06-21T09:53:27.352Z,100279.34
2018-06-21T09:55:55.021Z,100283.88
2018-06-21T09:58:22.719Z,100278.48
2018-06-21T10:00:56.297Z,100278.48
2018-06-21T10:03:23.947Z,100261.52
2018-06-21T10:05:51.675Z,100264.57
2018-06-21T10:08:19.777Z,100261.81
2018-06-21T10:10:47.209Z,100254.80
2018-06-21T10:13:15.300Z,100254.54
2018-06-21T10:15:42.513Z,100260.48
2018-06-21T10:18:10.322Z,100246.06
2018-06-21T10:20:37.688Z,100251.83
2018-06-21T10:23:05.268Z,100246.41
2018-06-21T10:25:33.131Z,100240.81
2018-06-21T10:28:00.742Z,100233.66
2018-06-21T10:30:28.080Z,100245.73
2018-06-21T10:32:55.295Z,100232.36
2018-06-21T10:35:22.534Z,100239.95
2018-06-21T10:37:52.756Z,100232.99
2018-06-21T10:40:20.071Z,100238.44
2018-06-21T10:42:48.579Z,100234.52
2018-06-21T10:45:15.863Z,100228.47
2018-06-21T10:47:43.623Z,100273.37
2018-06-21T10:50:10.806Z,100282.39
2018-06-21T10:52:38.326Z,100311.37
2018-06-21T10:55:06.083Z,100374.38
2018-06-21T10:57:33.589Z,100409.41
2018-06-21T11:00:01.007Z,100444.44
2018-06-21T11:02:28.237Z,100489.98
2018-06-21T11:04:55.452Z,100475.66
2018-06-21T11:07:22.612Z,100461.95
2018-06-21T11:09:49.787Z,100489.23
2018-06-21T11:12:16.920Z,100494.28
2018-06-21T11:14:44.181Z,100512.52
2018-06-21T11:17:11.641Z,100514.75
2018-06-21T11:19:39.316Z,100523.61
2018-06-21T11:22:07.385Z,100528.20
2018-06-21T11:24:35.690Z,100530.39
2018-06-21T11:27:03.569Z,100532.41
2018-06-21T11:29:31.163Z,100515.41
2018-06-21T11:31:58.432Z,100518.16
2018-06-21T11:34:25.568Z,100529.05
2018-06-21T11:36:52.735Z,100557.67
2018-06-21T11:39:19.991Z,100543.34
2018-06-21T11:41:47.126Z,100569.27
2018-06-21T11:44:14.295Z,100588.41
2018-06-21T11:46:41.553Z,100586.70
2018-06-21T11:49:09.056Z,100610.69
2018-06-21T11:51:37.228Z,100611.84
2018-06-21T11:54:05.273Z,100604.69
2018-06-21T11:56:32.540Z,100612.33
2018-06-21T11:59:00.089Z,100630.55
2018-06-21T12:01:27.844Z,100638.44
2018-06-21T12:03:55.318Z,100640.73
2018-06-21T12:06:23.285Z,100656.77
2018-06-21T12:08:50.817Z,100664.50
2018-06-21T12:11:18.087Z,100664.98
2018-06-21T12:13:45.292Z,100667.25
2018-06-21T12:16:12.458Z,100661.68
2018-06-21T12:18:39.570Z,100669.49
2018-06-21T12:21:09.900Z,100679.12
2018-06-21T12:23:37.102Z,100710.75
2018-06-21T12:26:04.317Z,100710.53
2018-06-21T12:28:31.569Z,100716.67
2018-06-21T12:30:58.878Z,100731.64
2018-06-21T12:33:28.322Z,100756.58
2018-06-21T12:35:57.201Z,100772.13
2018-06-21T12:38:25.228Z,100750.46
2018-06-21T12:40:53.729Z,100750.76
2018-06-21T12:43:22.141Z,100734.77
2018-06-21T12:45:50.214Z,100749.86
2018-06-21T12:48:17.409Z,100759.75
2018-06-21T12:50:44.773Z,100763.26
2018-06-21T12:53:12.979Z,100747.03
2018-06-21T12:55:40.109Z,100754.67
2018-06-21T12:58:07.364Z,100759.45
2018-06-21T13:00:34.549Z,100787.81
2018-06-21T13:03:01.655Z,100793.10
2018-06-21T13:05:29.409Z,100801.50
2018-06-21T13:07:56.897Z,100784.83
2018-06-21T13:10:35.716Z,100776.48
2018-06-21T13:13:15.799Z,100764.53
2018-06-21T13:15:43.108Z,100758.07
2018-06-21T13:18:10.270Z,100749.39
2018-06-21T13:20:37.426Z,100748.63
2018-06-21T13:23:04.740Z,100757.91
2018-06-21T13:25:31.980Z,100752.72
2018-06-21T13:27:59.582Z,100747.52
2018-06-21T13:30:27.022Z,100764.70
2018-06-21T13:32:54.720Z,100778.68
2018-06-21T13:35:22.325Z,100778.11
2018-06-21T13:37:50.154Z,100778.82
2018-06-21T13:40:19.115Z,100781.86
2018-06-21T13:42:46.399Z,100772.55
2018-06-21T13:45:13.620Z,100770.67
2018-06-21T13:47:40.758Z,100767.99
2018-06-21T13:50:07.951Z,100773.00
2018-06-21T13:52:35.159Z,100770.95
2018-06-21T13:55:02.394Z,100772.34
2018-06-21T13:57:29.709Z,100767.38
2018-06-21T13:59:57.010Z,100783.81
2018-06-21T14:02:24.482Z,100791.42
2018-06-21T14:04:52.171Z,100818.89
2018-06-21T14:07:20.826Z,100814.38
2018-06-21T14:09:48.207Z,100821.84
2018-06-21T14:12:15.449Z,100820.72
2018-06-21T14:14:42.856Z,100839.95
2018-06-21T14:17:10.021Z,100845.23
2018-06-21T14:19:37.286Z,100852.69
2018-06-21T14:22:04.711Z,100847.82
2018-06-21T14:24:31.913Z,100847.12
2018-06-21T14:26:59.437Z,100856.67
2018-06-21T14:29:26.877Z,100859.66
2018-06-21T14:31:54.261Z,100871.67
2018-06-21T14:34:21.909Z,100880.27
2018-06-21T14:36:49.200Z,100876.92
2018-06-21T14:39:16.554Z,100870.98
2018-06-21T14:41:43.745Z,100856.75
2018-06-21T14:44:10.960Z,100864.45
2018-06-21T14:46:38.082Z,100867.05
2018-06-21T14:49:05.236Z,100873.84
2018-06-21T14:51:32.520Z,100859.52
2018-06-21T14:53:59.714Z,100876.81
2018-06-21T14:56:27.183Z,100858.90
2018-06-21T14:58:55.020Z,100883.78
2018-06-21T15:01:22.440Z,100878.98
2018-06-21T15:03:49.997Z,100882.20
2018-06-21T15:06:17.310Z,100871.01
2018-06-21T15:08:44.636Z,100860.34
2018-06-21T15:11:13.753Z,100868.39
2018-06-21T15:13:41.018Z,100856.82
2018-06-21T15:16:08.301Z,100858.56
2018-06-21T15:18:36.764Z,100862.27
2018-06-21T15:21:05.311Z,100854.50
2018-06-21T15:23:32.549Z,100850.23
2018-06-21T15:25:59.910Z,100844.81
2018-06-21T15:28:27.256Z,100866.48
2018-06-21T15:30:54.492Z,100847.82
2018-06-21T15:33:21.665Z,100854.89
2018-06-21T15:35:49.097Z,100850.84
2018-06-21T15:38:17.056Z,100849.89
2018-06-21T15:40:44.589Z,100849.53
2018-06-21T15:43:12.485Z,100846.66
2018-06-21T15:45:40.886Z,100832.14
2018-06-21T15:48:08.117Z,100841.23
2018-06-21T15:50:35.899Z,100854.66
2018-06-21T15:53:03.160Z,100848.30
2018-06-21T15:55:30.632Z,100848.38
2018-06-21T15:57:58.214Z,100862.53
2018-06-21T16:00:25.626Z,100867.83
2018-06-21T16:02:52.818Z,100874.27
2018-06-21T16:05:20.195Z,100873.82
2018-06-21T16:07:47.504Z,100859.61
2018-06-21T16:10:15.158Z,100861.77
2018-06-21T16:12:42.592Z,100876.32
2018-06-21T16:15:10.524Z,100887.47
2018-06-21T16:17:38.108Z,100886.92
2018-06-21T16:20:05.636Z,100895.71
2018-06-21T16:22:33.139Z,100896.13
2018-06-21T16:25:00.347Z,100906.56
2018-06-21T16:27:27.503Z,100897.29
2018-06-21T16:29:55.216Z,100902.75
2018-06-21T16:32:22.432Z,100919.45
2018-06-21T16:34:49.807Z,100906.34
2018-06-21T16:37:17.150Z,100914.41
2018-06-21T16:39:44.874Z,100920.93
2018-06-21T16:42:12.620Z,100925.12
2018-06-21T16:44:40.319Z,100919.27
2018-06-21T16:47:09.041Z,100922.46
2018-06-21T16:49:39.254Z,100956.34
2018-06-21T16:52:07.076Z,100920.05
2018-06-21T16:54:36.218Z,100935.05
2018-06-21T16:57:08.956Z,100936.88
2018-06-21T16:59:40.486Z,100953.52
2018-06-21T17:02:10.261Z,100945.37
2018-06-21T17:04:42.240Z,100949.41
2018-06-21T17:07:20.374Z,100954.12
2018-06-21T17:09:51.601Z,100961.97
2018-06-21T17:12:19.623Z,100963.06
2018-06-21T17:14:49.999Z,100966.66
2018-06-21T17:17:21.548Z,100959.50
2018-06-21T17:19:50.236Z,100958.95
2018-06-21T17:22:19.725Z,100962.77
2018-06-21T17:24:49.440Z,100970.16
2018-06-21T17:27:16.732Z,100971.88
2018-06-21T17:29:44.047Z,100962.59
2018-06-21T17:32:11.605Z,100977.85
2018-06-21T17:34:40.587Z,100987.26
2018-06-21T17:37:07.758Z,100977.53
2018-06-21T17:39:35.593Z,100983.38
2018-06-21T17:42:03.107Z,100988.44
2018-06-21T17:44:30.239Z,100989.36
2018-06-21T17:46:57.747Z,101002.44
2018-06-21T17:49:24.942Z,101003.77
2018-06-21T17:51:52.169Z,101004.17
2018-06-21T17:54:19.438Z,101000.38
2018-06-21T17:56:46.760Z,101006.67
2018-06-21T17:59:14.081Z,101003.37
2018-06-21T18:01:41.496Z,101007.47
2018-06-21T18:04:09.481Z,101009.59
2018-06-21T18:06:37.678Z,101010.48
2018-06-21T18:09:07.608Z,101010.45
2018-06-21T18:11:34.909Z,101022.69
2018-06-21T18:14:02.195Z,101020.95
2018-06-21T18:16:29.491Z,101021.10
2018-06-21T18:18:56.974Z,101020.70
2018-06-21T18:21:25.318Z,101029.44
2018-06-21T18:23:54.259Z,101032.42
2018-06-21T18:26:22.804Z,101034.42
2018-06-21T18:28:50.285Z,101029.13
2018-06-21T18:31:20.478Z,101038.14
2018-06-21T18:33:50.726Z,101042.11
2018-06-21T18:36:18.084Z,101051.26
2018-06-21T18:38:46.565Z,101046.63
2018-06-21T18:41:13.742Z,101052.80
2018-06-21T18:43:42.093Z,101061.70
2018-06-21T18:46:09.735Z,101057.66
2018-06-21T18:48:37.045Z,101060.08
2018-06-21T18:51:04.576Z,101076.03
2018-06-21T18:53:31.820Z,101074.48
2018-06-21T18:55:58.987Z,101077.29
2018-06-21T18:58:26.233Z,101080.10
2018-06-21T19:00:53.519Z,101084.03
2018-06-21T19:03:21.281Z,101091.90
2018-06-21T19:05:55.899Z,101086.78
2018-06-21T19:08:29.975Z,101090.91
2018-06-21T19:11:03.180Z,101107.02
2018-06-21T19:13:30.536Z,101107.34
2018-06-21T19:15:57.961Z,101107.89
2018-06-21T19:18:25.447Z,101109.79
2018-06-21T19:20:53.749Z,101117.45
2018-06-21T19:23:22.052Z,101116.50
2018-06-21T19:25:49.623Z,101128.23
2018-06-21T19:28:16.941Z,101123.95
2018-06-21T19:30:44.217Z,101123.56
2018-06-21T19:33:12.102Z,101125.70
2018-06-21T19:35:39.815Z,101136.02
2018-06-21T19:38:07.368Z,101142.05
2018-06-21T19:40:35.985Z,101144.28
2018-06-21T19:43:03.901Z,101150.48
2018-06-21T19:45:31.933Z,101149.66
2018-06-21T19:47:59.610Z,101157.97
2018-06-21T19:50:27.522Z,101154.54
2018-06-21T19:52:55.030Z,101164.79
2018-06-21T19:55:24.304Z,101169.80
2018-06-21T19:57:51.682Z,101168.30
2018-06-21T20:00:19.091Z,101164.17
2018-06-21T20:02:52.508Z,101165.41
2018-06-21T20:05:21.332Z,101159.08
2018-06-21T20:07:49.524Z,101164.27
2018-06-21T20:10:17.416Z,101161.17
2018-06-21T20:12:45.330Z,101155.86
2018-06-21T20:15:12.864Z,101167.23
2018-06-21T20:17:40.224Z,101167.38
2018-06-21T20:20:13.165Z,101176.59
2018-06-21T20:22:40.513Z,101181.59
2018-06-21T20:25:07.885Z,101190.35
2018-06-21T20:27:35.256Z,101185.63
2018-06-21T20:30:02.773Z,101190.08
2018-06-21T20:32:29.923Z,101189.78
2018-06-21T20:34:57.188Z,101200.08
2018-06-21T20:37:24.537Z,101197.27
2018-06-21T20:39:51.834Z,101199.53
2018-06-21T20:42:19.726Z,101207.39
2018-06-21T20:44:47.397Z,101205.52
2018-06-21T20:47:14.868Z,101207.22
2018-06-21T20:49:43.082Z,101210.52
2018-06-21T20:52:16.565Z,101215.91
2018-06-21T20:54:43.915Z,101207.84
2018-06-21T20:57:11.764Z,101212.32
2018-06-21T20:59:39.653Z,101208.29
2018-06-21T21:02:07.240Z,101208.14
2018-06-21T21:05:16.721Z,101212.69
2018-06-21T21:07:45.011Z,101218.72
2018-06-21T21:10:13.564Z,101212.80
2018-06-21T21:12:41.648Z,101221.36
2018-06-21T21:15:10.218Z,101215.34
2018-06-21T21:17:38.142Z,101213.27
2018-06-21T21:20:06.694Z,101215.23
2018-06-21T21:22:35.530Z,101209.20
2018-06-21T21:25:02.810Z,101207.97
2018-06-21T21:27:30.169Z,101203.12
2018-06-21T21:29:57.470Z,101211.57
2018-06-21T21:32:25.512Z,101209.08
2018-06-21T21:34:53.151Z,101202.91
2018-06-21T21:37:20.292Z,101209.68
2018-06-21T21:39:47.933Z,101209.83
2018-06-21T21:42:15.269Z,101206.09
2018-06-21T21:44:42.945Z,101208.45
2018-06-21T21:47:10.667Z,101206.86
2018-06-21T21:49:38.112Z,101203.45
2018-06-21T21:52:05.416Z,101208.81
2018-06-21T21:54:32.559Z,101208.37
2018-06-21T21:56:59.792Z,101208.55
2018-06-21T21:59:27.049Z,101212.74
2018-06-21T22:01:54.377Z,101209.55
2018-06-21T22:04:21.544Z,101210.58
2018-06-21T22:06:48.853Z,101214.09
2018-06-21T22:09:16.000Z,101206.06
2018-06-21T22:11:43.144Z,101216.45
2018-06-21T22:14:10.306Z,101218.41
2018-06-21T22:16:37.461Z,101215.69
2018-06-21T22:19:04.633Z,101223.67
2018-06-21T22:21:31.962Z,101218.09
2018-06-21T22:23:59.160Z,101213.70
2018-06-21T22:26:27.000Z,101216.75
2018-06-21T22:28:54.265Z,101205.31
2018-06-21T22:31:21.399Z,101205.94
2018-06-21T22:33:48.539Z,101210.16
2018-06-21T22:36:15.736Z,101205.36
2018-06-21T22:38:42.997Z,101204.14
2018-06-21T22:41:10.705Z,101202.92
2018-06-21T22:43:39.006Z,101197.34
2018-06-21T22:46:07.577Z,101198.61
2018-06-21T22:48:35.153Z,101192.55
2018-06-21T22:51:02.404Z,101196.47
2018-06-21T22:53:29.651Z,101203.20
2018-06-21T22:55:56.961Z,101202.22
2018-06-21T22:58:24.287Z,101205.38
2018-06-21T23:00:51.538Z,101202.39
2018-06-21T23:03:19.696Z,101202.19
2018-06-21T23:05:48.572Z,101202.19
2018-06-21T23:08:17.165Z,101210.60
2018-06-21T23:10:44.382Z,101210.28
2018-06-21T23:13:11.633Z,101210.89
2018-06-21T23:15:39.108Z,101211.77
2018-06-21T23:18:07.816Z,101216.25
2018-06-21T23:20:35.423Z,101201.41
2018-06-21T23:23:02.617Z,101207.09
2018-06-21T23:25:29.897Z,101206.07
2018-06-21T23:27:57.209Z,101202.41
2018-06-21T23:30:24.532Z,101196.20
2018-06-21T23:32:51.816Z,101199.87
2018-06-21T23:35:19.722Z,101194.81
2018-06-21T23:37:47.976Z,101188.44
2018-06-21T23:40:15.748Z,101193.72
2018-06-21T23:42:43.000Z,101198.22
2018-06-21T23:45:10.166Z,101193.86
2018-06-21T23:47:38.507Z,101196.45
2018-06-21T23:50:05.933Z,101195.33
2018-06-21T23:52:33.162Z,101195.00
2018-06-21T23:55:00.492Z,101201.33
2018-06-21T23:57:27.923Z,101212.73
2018-06-21T23:59:55.188Z,101206.77
